createdAt,value
2018-11-07T00:00:15.272Z,14.40
2018-11-07T00:01:19.420Z,14.40
2018-11-07T00:02:23.547Z,14.40
2018-11-07T00:03:27.608Z,14.40
2018-11-07T00:04:31.740Z,14.50
2018-11-07T00:05:35.845Z,14.40
2018-11-07T00:06:39.947Z,14.40
2018-11-07T00:07:44.208Z,14.50
2018-11-07T00:08:48.314Z,14.50
2018-11-07T00:09:52.418Z,14.50
2018-11-07T00:10:56.652Z,14.50
2018-11-07T00:12:00.762Z,14.50
2018-11-07T00:13:05.238Z,14.50
2018-11-07T00:14:09.331Z,14.50
2018-11-07T00:15:14.722Z,14.50
2018-11-07T00:16:18.931Z,14.50
2018-11-07T00:17:23.092Z,14.50
2018-11-07T00:18:27.209Z,14.50
2018-11-07T00:19:31.289Z,14.50
2018-11-07T00:20:35.442Z,14.40
2018-11-07T00:21:39.499Z,14.40
2018-11-07T00:22:43.620Z,14.40
2018-11-07T00:23:47.680Z,14.40
2018-11-07T00:24:51.783Z,14.40
2018-11-07T00:25:55.874Z,14.40
2018-11-07T00:26:59.989Z,14.40
2018-11-07T00:28:04.124Z,14.40
2018-11-07T00:29:08.374Z,14.40
2018-11-07T00:30:12.592Z,14.40
2018-11-07T00:31:16.644Z,14.40
2018-11-07T00:32:20.662Z,14.40
2018-11-07T00:33:24.775Z,14.40
2018-11-07T00:34:28.904Z,14.40
2018-11-07T00:35:33.012Z,14.40
2018-11-07T00:36:37.056Z,14.40
2018-11-07T00:37:41.997Z,14.40
2018-11-07T00:38:46.036Z,14.40
2018-11-07T00:39:50.086Z,14.40
2018-11-07T00:40:54.208Z,14.40
2018-11-07T00:41:58.284Z,14.40
2018-11-07T00:43:02.416Z,14.40
2018-11-07T00:44:06.710Z,14.40
2018-11-07T00:45:12.576Z,14.40
2018-11-07T00:46:16.642Z,14.30
2018-11-07T00:47:20.819Z,14.30
2018-11-07T00:48:25.048Z,14.30
2018-11-07T00:49:29.149Z,14.30
2018-11-07T00:50:33.282Z,14.30
2018-11-07T00:51:37.418Z,14.40
2018-11-07T00:52:41.887Z,14.30
2018-11-07T00:53:45.934Z,14.30
2018-11-07T00:54:49.988Z,14.30
2018-11-07T00:55:54.004Z,14.30
2018-11-07T00:56:58.119Z,14.30
2018-11-07T00:58:02.232Z,14.40
2018-11-07T00:59:06.344Z,14.30
2018-11-07T01:00:15.729Z,14.30
2018-11-07T01:01:19.809Z,14.30
2018-11-07T01:02:23.916Z,14.30
2018-11-07T01:03:27.984Z,14.30
2018-11-07T01:04:32.131Z,14.30
2018-11-07T01:05:36.270Z,14.30
2018-11-07T01:06:40.360Z,14.30
2018-11-07T01:07:45.417Z,14.30
2018-11-07T01:08:50.053Z,14.30
2018-11-07T01:09:54.129Z,14.30
2018-11-07T01:10:58.273Z,14.30
2018-11-07T01:12:02.369Z,14.30
2018-11-07T01:13:06.432Z,14.30
2018-11-07T01:14:10.609Z,14.30
2018-11-07T01:15:14.924Z,14.30
2018-11-07T01:16:19.092Z,14.30
2018-11-07T01:17:23.160Z,14.30
2018-11-07T01:18:27.236Z,14.30
2018-11-07T01:19:31.322Z,14.30
2018-11-07T01:20:35.392Z,14.30
2018-11-07T01:21:39.556Z,14.30
2018-11-07T01:22:44.020Z,14.30
2018-11-07T01:23:48.166Z,14.30
2018-11-07T01:24:52.233Z,14.30
2018-11-07T01:25:56.387Z,14.30
2018-11-07T01:27:00.484Z,14.30
2018-11-07T01:28:04.724Z,14.40
2018-11-07T01:29:08.764Z,14.40
2018-11-07T01:30:14.032Z,14.40
2018-11-07T01:31:18.118Z,14.40
2018-11-07T01:32:22.207Z,14.40
2018-11-07T01:33:26.340Z,14.40
2018-11-07T01:34:30.446Z,14.40
2018-11-07T01:35:34.520Z,14.40
2018-11-07T01:36:38.640Z,14.40
2018-11-07T01:37:42.788Z,14.40
2018-11-07T01:38:46.973Z,14.40
2018-11-07T01:39:51.037Z,14.40
2018-11-07T01:40:55.162Z,14.30
2018-11-07T01:41:59.352Z,14.40
2018-11-07T01:43:03.549Z,14.30
2018-11-07T01:44:07.996Z,14.40
2018-11-07T01:45:12.694Z,14.40
2018-11-07T01:46:17.772Z,14.40
2018-11-07T01:47:22.148Z,14.40
2018-11-07T01:48:26.255Z,14.40
2018-11-07T01:49:30.255Z,14.40
2018-11-07T01:50:34.355Z,14.40
2018-11-07T01:51:38.485Z,14.40
2018-11-07T01:52:42.551Z,14.40
2018-11-07T01:53:46.836Z,14.40
2018-11-07T01:54:50.909Z,14.40
2018-11-07T01:55:54.986Z,14.40
2018-11-07T01:56:59.141Z,14.40
2018-11-07T01:58:03.262Z,14.40
2018-11-07T01:59:07.285Z,14.40
2018-11-07T02:00:12.244Z,14.40
2018-11-07T02:01:16.422Z,14.40
2018-11-07T02:02:20.623Z,14.40
2018-11-07T02:03:24.791Z,14.40
2018-11-07T02:04:28.925Z,14.40
2018-11-07T02:05:33.051Z,14.40
2018-11-07T02:06:37.208Z,14.40
2018-11-07T02:07:41.653Z,14.40
2018-11-07T02:08:45.762Z,14.40
2018-11-07T02:09:49.904Z,14.40
2018-11-07T02:10:53.990Z,14.40
2018-11-07T02:11:58.049Z,14.30
2018-11-07T02:13:02.229Z,14.40
2018-11-07T02:14:12.448Z,14.30
2018-11-07T02:15:22.521Z,14.30
2018-11-07T02:16:26.649Z,14.30
2018-11-07T02:17:30.720Z,14.30
2018-11-07T02:18:34.831Z,14.30
2018-11-07T02:19:39.060Z,14.30
2018-11-07T02:20:43.130Z,14.30
2018-11-07T02:21:47.222Z,14.30
2018-11-07T02:22:51.370Z,14.30
2018-11-07T02:23:55.499Z,14.30
2018-11-07T02:24:59.590Z,14.30
2018-11-07T02:26:03.768Z,14.30
2018-11-07T02:27:07.826Z,14.30
2018-11-07T02:28:11.896Z,14.30
2018-11-07T02:29:16.244Z,14.30
2018-11-07T02:30:20.347Z,14.30
2018-11-07T02:31:24.388Z,14.30
2018-11-07T02:32:28.507Z,14.30
2018-11-07T02:33:32.566Z,14.20
2018-11-07T02:34:36.720Z,14.20
2018-11-07T02:35:40.902Z,14.20
2018-11-07T02:36:44.987Z,14.20
2018-11-07T02:37:49.058Z,14.20
2018-11-07T02:38:53.149Z,14.20
2018-11-07T02:39:57.269Z,14.20
2018-11-07T02:41:01.316Z,14.20
2018-11-07T02:42:05.429Z,14.20
2018-11-07T02:43:09.550Z,14.20
2018-11-07T02:44:14.231Z,14.20
2018-11-07T02:45:18.305Z,14.20
2018-11-07T02:46:22.432Z,14.20
2018-11-07T02:47:26.535Z,14.20
2018-11-07T02:48:30.637Z,14.20
2018-11-07T02:49:34.690Z,14.10
2018-11-07T02:50:38.824Z,14.10
2018-11-07T02:51:42.951Z,14.10
2018-11-07T02:52:47.023Z,14.10
2018-11-07T02:53:51.183Z,14.10
2018-11-07T02:54:55.337Z,14.00
2018-11-07T02:55:59.453Z,14.00
2018-11-07T02:57:03.807Z,14.00
2018-11-07T02:58:07.906Z,14.00
2018-11-07T02:59:12.060Z,14.00
2018-11-07T03:00:16.201Z,14.00
2018-11-07T03:01:20.313Z,14.00
2018-11-07T03:02:24.387Z,14.00
2018-11-07T03:03:28.526Z,14.00
2018-11-07T03:04:32.583Z,14.00
2018-11-07T03:05:36.674Z,14.00
2018-11-07T03:06:40.836Z,14.00
2018-11-07T03:07:44.985Z,14.00
2018-11-07T03:08:49.070Z,14.00
2018-11-07T03:09:53.166Z,14.00
2018-11-07T03:10:57.291Z,14.00
2018-11-07T03:12:01.431Z,13.90
2018-11-07T03:13:05.699Z,13.90
2018-11-07T03:14:09.937Z,13.90
2018-11-07T03:15:14.035Z,13.90
2018-11-07T03:16:18.465Z,13.90
2018-11-07T03:17:22.580Z,13.90
2018-11-07T03:18:26.723Z,13.90
2018-11-07T03:19:30.834Z,13.90
2018-11-07T03:20:34.922Z,13.90
2018-11-07T03:21:38.999Z,13.90
2018-11-07T03:22:43.113Z,13.90
2018-11-07T03:23:47.213Z,13.90
2018-11-07T03:24:51.265Z,13.90
2018-11-07T03:25:55.424Z,13.90
2018-11-07T03:26:59.528Z,13.90
2018-11-07T03:28:03.640Z,13.90
2018-11-07T03:29:07.924Z,13.90
2018-11-07T03:30:12.034Z,13.90
2018-11-07T03:31:16.139Z,13.90
2018-11-07T03:32:21.172Z,13.90
2018-11-07T03:33:25.252Z,13.90
2018-11-07T03:34:29.395Z,13.80
2018-11-07T03:35:33.570Z,13.80
2018-11-07T03:36:37.597Z,13.80
2018-11-07T03:37:41.614Z,13.80
2018-11-07T03:38:45.705Z,13.80
2018-11-07T03:39:49.899Z,13.80
2018-11-07T03:40:53.951Z,13.70
2018-11-07T03:41:57.978Z,13.70
2018-11-07T03:43:02.181Z,13.70
2018-11-07T03:44:06.783Z,13.70
2018-11-07T03:45:10.928Z,13.70
2018-11-07T03:46:15.023Z,13.70
2018-11-07T03:48:30.561Z,13.70
2018-11-07T03:49:34.755Z,13.70
2018-11-07T03:50:38.872Z,13.70
2018-11-07T03:51:42.942Z,13.70
2018-11-07T03:52:47.076Z,13.70
2018-11-07T03:53:51.258Z,13.70
2018-11-07T03:54:55.389Z,13.70
2018-11-07T03:55:59.533Z,13.70
2018-11-07T03:57:03.638Z,13.70
2018-11-07T03:58:07.794Z,13.70
2018-11-07T03:59:11.887Z,13.70
2018-11-07T04:00:15.931Z,13.70
2018-11-07T04:01:20.017Z,13.70
2018-11-07T04:02:24.110Z,13.70
2018-11-07T04:03:34.601Z,13.70
2018-11-07T04:04:38.746Z,13.60
2018-11-07T04:05:42.842Z,13.60
2018-11-07T04:06:46.973Z,13.60
2018-11-07T04:07:51.081Z,13.60
2018-11-07T04:08:55.176Z,13.60
2018-11-07T04:09:59.296Z,13.60
2018-11-07T04:11:03.393Z,13.50
2018-11-07T04:12:07.543Z,13.50
2018-11-07T04:13:11.703Z,13.50
2018-11-07T04:14:15.870Z,13.60
2018-11-07T04:15:19.968Z,13.50
2018-11-07T04:16:24.141Z,13.50
2018-11-07T04:17:28.245Z,13.50
2018-11-07T04:18:32.381Z,13.50
2018-11-07T04:19:36.474Z,13.50
2018-11-07T04:20:40.635Z,13.50
2018-11-07T04:21:44.765Z,13.50
2018-11-07T04:22:49.036Z,13.50
2018-11-07T04:23:58.381Z,13.50
2018-11-07T04:25:02.560Z,13.50
2018-11-07T04:26:06.823Z,13.50
2018-11-07T04:27:10.966Z,13.50
2018-11-07T04:28:15.177Z,13.50
2018-11-07T04:29:19.281Z,13.50
2018-11-07T04:30:23.432Z,13.50
2018-11-07T04:31:27.702Z,13.40
2018-11-07T04:32:31.842Z,13.40
2018-11-07T04:33:35.861Z,13.40
2018-11-07T04:34:40.044Z,13.40
2018-11-07T04:35:44.126Z,13.40
2018-11-07T04:36:48.442Z,13.40
2018-11-07T04:37:52.876Z,13.40
2018-11-07T04:38:57.066Z,13.40
2018-11-07T04:40:01.214Z,13.40
2018-11-07T04:41:05.595Z,13.40
2018-11-07T04:42:09.760Z,13.40
2018-11-07T04:43:13.865Z,13.40
2018-11-07T04:44:17.937Z,13.40
2018-11-07T04:45:22.020Z,13.40
2018-11-07T04:46:26.119Z,13.40
2018-11-07T04:47:30.231Z,13.40
2018-11-07T04:48:34.398Z,13.40
2018-11-07T04:49:38.470Z,13.30
2018-11-07T04:50:42.591Z,13.30
2018-11-07T04:51:46.752Z,13.30
2018-11-07T04:52:50.871Z,13.30
2018-11-07T04:53:55.016Z,13.30
2018-11-07T04:54:59.460Z,13.30
2018-11-07T04:56:03.565Z,13.30
2018-11-07T04:57:07.801Z,13.30
2018-11-07T04:58:11.880Z,13.30
2018-11-07T04:59:15.951Z,13.30
2018-11-07T05:00:20.071Z,13.30
2018-11-07T05:01:24.217Z,13.30
2018-11-07T05:02:28.293Z,13.30
2018-11-07T05:03:32.470Z,13.30
2018-11-07T05:04:36.669Z,13.30
2018-11-07T05:05:40.816Z,13.20
2018-11-07T05:06:44.949Z,13.20
2018-11-07T05:07:48.961Z,13.20
2018-11-07T05:08:53.061Z,13.20
2018-11-07T05:09:57.225Z,13.20
2018-11-07T05:11:01.272Z,13.20
2018-11-07T05:12:06.076Z,13.20
2018-11-07T05:13:10.231Z,13.20
2018-11-07T05:14:14.410Z,13.20
2018-11-07T05:15:18.823Z,13.20
2018-11-07T05:16:22.902Z,13.20
2018-11-07T05:17:27.054Z,13.10
2018-11-07T05:18:31.086Z,13.10
2018-11-07T05:19:35.150Z,13.10
2018-11-07T05:20:39.232Z,13.10
2018-11-07T05:21:43.484Z,13.10
2018-11-07T05:22:47.527Z,13.10
2018-11-07T05:23:51.642Z,13.10
2018-11-07T05:24:55.753Z,13.10
2018-11-07T05:25:59.882Z,13.10
2018-11-07T05:27:03.979Z,13.10
2018-11-07T05:28:08.033Z,13.10
2018-11-07T05:29:12.231Z,13.10
2018-11-07T05:30:16.388Z,13.10
2018-11-07T05:31:20.504Z,13.00
2018-11-07T05:32:24.656Z,13.00
2018-11-07T05:33:28.747Z,13.00
2018-11-07T05:34:32.974Z,13.00
2018-11-07T05:35:37.063Z,13.00
2018-11-07T05:36:41.492Z,13.00
2018-11-07T05:37:45.548Z,13.00
2018-11-07T05:38:49.654Z,13.00
2018-11-07T05:39:53.825Z,13.00
2018-11-07T05:40:58.043Z,13.00
2018-11-07T05:42:02.042Z,13.00
2018-11-07T05:43:06.096Z,13.00
2018-11-07T05:44:10.167Z,13.00
2018-11-07T05:45:14.315Z,13.00
2018-11-07T05:46:18.446Z,13.00
2018-11-07T05:47:22.626Z,12.90
2018-11-07T05:48:26.849Z,12.90
2018-11-07T05:49:30.984Z,12.90
2018-11-07T05:50:35.082Z,12.90
2018-11-07T05:51:39.228Z,12.90
2018-11-07T05:52:43.272Z,12.90
2018-11-07T05:53:53.714Z,12.90
2018-11-07T05:54:57.757Z,12.90
2018-11-07T05:56:01.987Z,12.90
2018-11-07T05:57:06.160Z,12.90
2018-11-07T05:58:10.200Z,12.90
2018-11-07T05:59:14.262Z,12.90
2018-11-07T06:00:18.498Z,12.90
2018-11-07T06:01:22.565Z,12.90
2018-11-07T06:02:26.699Z,12.90
2018-11-07T06:03:30.790Z,12.80
2018-11-07T06:04:34.870Z,12.80
2018-11-07T06:05:39.017Z,12.80
2018-11-07T06:06:43.225Z,12.80
2018-11-07T06:07:47.372Z,12.80
2018-11-07T06:08:51.447Z,12.80
2018-11-07T06:09:55.520Z,12.80
2018-11-07T06:10:59.653Z,12.80
2018-11-07T06:12:03.848Z,12.80
2018-11-07T06:13:07.968Z,12.80
2018-11-07T06:14:12.125Z,12.80
2018-11-07T06:15:16.192Z,12.80
2018-11-07T06:16:20.365Z,12.80
2018-11-07T06:17:24.376Z,12.70
2018-11-07T06:18:28.442Z,12.70
2018-11-07T06:19:32.611Z,12.70
2018-11-07T06:20:36.661Z,12.70
2018-11-07T06:21:40.712Z,12.70
2018-11-07T06:22:44.972Z,12.70
2018-11-07T06:23:48.988Z,12.70
2018-11-07T06:24:53.207Z,12.70
2018-11-07T06:25:57.232Z,12.70
2018-11-07T06:27:01.327Z,12.70
2018-11-07T06:28:05.540Z,12.70
2018-11-07T06:29:09.717Z,12.70
2018-11-07T06:30:13.878Z,12.70
2018-11-07T06:31:18.106Z,12.70
2018-11-07T06:32:22.300Z,12.70
2018-11-07T06:33:26.450Z,12.70
2018-11-07T06:34:30.520Z,12.70
2018-11-07T06:35:34.830Z,12.70
2018-11-07T06:36:39.149Z,12.70
2018-11-07T06:37:43.285Z,12.70
2018-11-07T06:38:47.408Z,12.70
2018-11-07T06:39:51.546Z,12.70
2018-11-07T06:40:55.673Z,12.70
2018-11-07T06:41:59.859Z,12.70
2018-11-07T06:43:04.058Z,12.70
2018-11-07T06:44:08.889Z,12.70
2018-11-07T06:45:13.019Z,12.70
2018-11-07T06:46:17.146Z,12.70
2018-11-07T06:47:21.318Z,12.70
2018-11-07T06:48:25.474Z,12.70
2018-11-07T06:49:29.702Z,12.70
2018-11-07T06:50:33.734Z,12.70
2018-11-07T06:51:37.794Z,12.70
2018-11-07T06:52:42.037Z,12.70
2018-11-07T06:53:46.237Z,12.70
2018-11-07T06:54:50.312Z,12.80
2018-11-07T06:55:54.564Z,12.80
2018-11-07T06:56:58.798Z,12.80
2018-11-07T06:58:02.909Z,12.80
2018-11-07T06:59:07.136Z,12.80
2018-11-07T07:00:15.390Z,12.80
2018-11-07T07:01:19.537Z,12.80
2018-11-07T07:02:23.685Z,12.80
2018-11-07T07:03:27.797Z,12.80
2018-11-07T07:04:31.909Z,12.90
2018-11-07T07:05:36.020Z,12.90
2018-11-07T07:06:40.195Z,12.90
2018-11-07T07:07:44.258Z,12.90
2018-11-07T07:08:48.326Z,12.90
2018-11-07T07:09:52.512Z,12.90
2018-11-07T07:10:56.763Z,12.90
2018-11-07T07:12:00.918Z,12.90
2018-11-07T07:13:05.234Z,12.90
2018-11-07T07:14:09.486Z,12.90
2018-11-07T07:15:14.773Z,12.90
2018-11-07T07:16:19.020Z,13.00
2018-11-07T07:17:23.193Z,12.90
2018-11-07T07:18:27.350Z,13.00
2018-11-07T07:19:31.372Z,13.00
2018-11-07T07:20:35.470Z,13.00
2018-11-07T07:21:39.559Z,13.00
2018-11-07T07:22:44.167Z,13.00
2018-11-07T07:23:48.356Z,13.10
2018-11-07T07:24:52.474Z,13.00
2018-11-07T07:25:56.633Z,13.10
2018-11-07T07:27:00.732Z,13.10
2018-11-07T07:28:05.049Z,13.10
2018-11-07T07:29:09.164Z,13.10
2018-11-07T07:30:16.380Z,13.10
2018-11-07T07:31:20.551Z,13.10
2018-11-07T07:32:24.627Z,13.20
2018-11-07T07:33:28.763Z,13.10
2018-11-07T07:34:32.886Z,13.20
2018-11-07T07:35:37.884Z,13.20
2018-11-07T07:36:41.962Z,13.20
2018-11-07T07:37:46.188Z,13.20
2018-11-07T07:38:50.260Z,13.20
2018-11-07T07:39:54.310Z,13.20
2018-11-07T07:40:58.496Z,13.30
2018-11-07T07:42:02.664Z,13.20
2018-11-07T07:43:06.848Z,13.30
2018-11-07T07:44:10.982Z,13.30
2018-11-07T07:45:16.472Z,13.30
2018-11-07T07:46:20.560Z,13.30
2018-11-07T07:47:24.589Z,13.40
2018-11-07T07:48:28.700Z,13.40
2018-11-07T07:49:32.849Z,13.40
2018-11-07T07:50:36.903Z,13.40
2018-11-07T07:51:40.959Z,13.40
2018-11-07T07:52:45.348Z,13.50
2018-11-07T07:53:49.459Z,13.50
2018-11-07T07:54:53.581Z,13.50
2018-11-07T07:55:57.693Z,13.50
2018-11-07T07:57:01.800Z,13.60
2018-11-07T07:58:06.038Z,13.60
2018-11-07T07:59:10.096Z,13.60
2018-11-07T08:00:18.137Z,13.60
2018-11-07T08:01:22.288Z,13.70
2018-11-07T08:02:26.420Z,13.70
2018-11-07T08:03:30.525Z,13.70
2018-11-07T08:04:41.186Z,13.70
2018-11-07T08:05:45.324Z,13.80
2018-11-07T08:06:49.522Z,13.80
2018-11-07T08:07:53.734Z,13.80
2018-11-07T08:08:57.930Z,13.80
2018-11-07T08:10:02.030Z,13.80
2018-11-07T08:11:06.180Z,13.90
2018-11-07T08:12:10.285Z,13.90
2018-11-07T08:13:14.319Z,13.90
2018-11-07T08:14:18.491Z,13.90
2018-11-07T08:15:22.618Z,14.00
2018-11-07T08:16:27.151Z,14.00
2018-11-07T08:17:31.454Z,14.00
2018-11-07T08:18:35.586Z,14.00
2018-11-07T08:19:39.799Z,14.00
2018-11-07T08:20:43.959Z,14.10
2018-11-07T08:21:48.190Z,14.10
2018-11-07T08:22:52.332Z,14.10
2018-11-07T08:23:56.448Z,14.10
2018-11-07T08:25:00.556Z,14.20
2018-11-07T08:26:04.885Z,14.20
2018-11-07T08:27:08.968Z,14.20
2018-11-07T08:28:13.032Z,14.20
2018-11-07T08:29:17.079Z,14.20
2018-11-07T08:30:24.806Z,14.30
2018-11-07T08:31:28.919Z,14.30
2018-11-07T08:32:33.075Z,14.30
2018-11-07T08:33:37.251Z,14.30
2018-11-07T08:34:41.492Z,14.30
2018-11-07T08:35:45.559Z,14.40
2018-11-07T08:36:49.640Z,14.40
2018-11-07T08:37:53.663Z,14.40
2018-11-07T08:38:57.805Z,14.40
2018-11-07T08:40:01.919Z,14.40
2018-11-07T08:41:06.014Z,14.50
2018-11-07T08:42:10.104Z,14.50
2018-11-07T08:43:15.064Z,14.50
2018-11-07T08:44:19.153Z,14.50
2018-11-07T08:45:23.274Z,14.50
2018-11-07T08:46:27.384Z,14.60
2018-11-07T08:47:31.490Z,14.60
2018-11-07T08:48:35.494Z,14.60
2018-11-07T08:49:39.640Z,14.60
2018-11-07T08:50:43.776Z,14.70
2018-11-07T08:51:47.876Z,14.70
2018-11-07T08:52:52.018Z,14.70
2018-11-07T08:53:56.111Z,14.80
2018-11-07T08:55:00.295Z,14.80
2018-11-07T08:56:04.683Z,14.80
2018-11-07T08:57:08.854Z,14.90
2018-11-07T08:58:12.938Z,14.90
2018-11-07T08:59:17.072Z,15.00
2018-11-07T09:00:22.455Z,15.00
2018-11-07T09:01:26.696Z,15.00
2018-11-07T09:02:30.846Z,15.00
2018-11-07T09:03:34.982Z,15.10
2018-11-07T09:04:39.107Z,15.10
2018-11-07T09:05:43.195Z,15.10
2018-11-07T09:06:47.387Z,15.20
2018-11-07T09:07:51.509Z,15.20
2018-11-07T09:08:55.756Z,15.30
2018-11-07T09:09:59.925Z,15.30
2018-11-07T09:11:04.036Z,15.30
2018-11-07T09:12:08.263Z,15.40
2018-11-07T09:13:12.353Z,15.40
2018-11-07T09:14:16.471Z,15.40
2018-11-07T09:15:21.947Z,15.50
2018-11-07T09:16:26.156Z,15.60
2018-11-07T09:17:30.353Z,15.60
2018-11-07T09:18:34.428Z,15.70
2018-11-07T09:19:38.650Z,15.80
2018-11-07T09:20:42.733Z,16.00
2018-11-07T09:21:46.929Z,16.10
2018-11-07T09:22:51.041Z,16.30
2018-11-07T09:23:55.254Z,16.50
2018-11-07T09:24:59.392Z,16.70
2018-11-07T09:26:03.483Z,17.00
2018-11-07T09:27:07.608Z,17.20
2018-11-07T09:28:11.974Z,17.50
2018-11-07T09:29:16.066Z,17.80
2018-11-07T09:30:21.452Z,18.10
2018-11-07T09:31:25.548Z,18.40
2018-11-07T09:32:29.760Z,18.80
2018-11-07T09:33:33.926Z,19.10
2018-11-07T09:34:38.058Z,19.40
2018-11-07T09:35:42.232Z,19.70
2018-11-07T09:36:46.374Z,20.10
2018-11-07T09:37:50.596Z,20.40
2018-11-07T09:38:54.776Z,20.70
2018-11-07T09:39:58.842Z,21.00
2018-11-07T09:41:02.992Z,21.30
2018-11-07T09:42:07.175Z,21.60
2018-11-07T09:43:11.481Z,21.90
2018-11-07T09:44:15.585Z,22.20
2018-11-07T09:45:20.954Z,22.50
2018-11-07T09:46:25.076Z,22.70
2018-11-07T09:47:29.253Z,23.00
2018-11-07T09:48:33.466Z,23.30
2018-11-07T09:49:37.539Z,23.50
2018-11-07T09:50:41.659Z,23.80
2018-11-07T09:51:45.884Z,24.00
2018-11-07T09:52:50.024Z,24.30
2018-11-07T09:53:54.265Z,24.50
2018-11-07T09:54:58.356Z,24.70
2018-11-07T09:56:02.504Z,24.90
2018-11-07T09:57:06.825Z,25.10
2018-11-07T09:58:11.019Z,25.40
2018-11-07T09:59:15.173Z,25.50
2018-11-07T10:00:20.329Z,25.80
2018-11-07T10:01:24.438Z,25.90
2018-11-07T10:02:28.573Z,26.20
2018-11-07T10:03:32.718Z,26.30
2018-11-07T10:04:36.797Z,26.50
2018-11-07T10:05:41.080Z,26.80
2018-11-07T10:06:45.204Z,26.90
2018-11-07T10:07:49.276Z,27.10
2018-11-07T10:08:53.470Z,27.30
2018-11-07T10:09:58.168Z,27.50
2018-11-07T10:11:02.271Z,27.70
2018-11-07T10:12:06.503Z,27.80
2018-11-07T10:13:10.597Z,28.00
2018-11-07T10:14:14.769Z,28.10
2018-11-07T10:15:19.209Z,28.30
2018-11-07T10:16:23.338Z,28.50
2018-11-07T10:17:27.449Z,28.60
2018-11-07T10:18:31.645Z,28.80
2018-11-07T10:19:35.729Z,28.90
2018-11-07T10:20:39.900Z,29.10
2018-11-07T10:21:43.887Z,29.20
2018-11-07T10:22:48.626Z,29.40
2018-11-07T10:23:52.727Z,29.60
2018-11-07T10:24:56.819Z,29.70
2018-11-07T10:26:00.899Z,29.90
2018-11-07T10:28:09.020Z,30.20
2018-11-07T10:29:12.911Z,30.30
2018-11-07T10:30:18.338Z,30.50
2018-11-07T10:31:22.433Z,30.60
2018-11-07T10:32:26.632Z,30.80
2018-11-07T10:33:30.873Z,30.90
2018-11-07T10:34:41.675Z,31.10
2018-11-07T10:35:45.730Z,31.30
2018-11-07T10:36:49.821Z,31.40
2018-11-07T10:37:53.932Z,31.60
2018-11-07T10:38:58.082Z,31.70
2018-11-07T10:40:02.368Z,31.80
2018-11-07T10:41:06.470Z,32.00
2018-11-07T10:42:10.525Z,32.10
2018-11-07T10:43:14.598Z,32.20
2018-11-07T10:44:18.825Z,32.30
2018-11-07T10:45:22.863Z,32.40
2018-11-07T10:46:27.144Z,32.50
2018-11-07T10:47:31.300Z,32.60
2018-11-07T10:48:35.568Z,32.60
2018-11-07T10:49:39.633Z,32.70
2018-11-07T10:50:43.762Z,32.80
2018-11-07T10:51:47.958Z,32.80
2018-11-07T10:52:52.135Z,32.90
2018-11-07T10:53:56.206Z,33.00
2018-11-07T10:55:00.305Z,33.10
2018-11-07T10:56:04.679Z,33.10
2018-11-07T10:57:08.962Z,33.20
2018-11-07T10:58:13.092Z,33.20
2018-11-07T10:59:17.242Z,33.30
2018-11-07T11:00:26.706Z,33.30
2018-11-07T11:01:36.219Z,33.40
2018-11-07T11:02:45.642Z,33.50
2018-11-07T11:03:49.852Z,33.50
2018-11-07T11:04:54.129Z,33.50
2018-11-07T11:05:58.164Z,33.50
2018-11-07T11:07:02.235Z,33.60
2018-11-07T11:08:06.664Z,33.60
2018-11-07T11:09:10.824Z,33.70
2018-11-07T11:10:15.122Z,33.70
2018-11-07T11:11:19.450Z,33.80
2018-11-07T11:12:24.226Z,33.80
2018-11-07T11:13:28.315Z,33.90
2018-11-07T11:14:32.558Z,34.00
2018-11-07T11:15:36.807Z,34.10
2018-11-07T11:16:40.844Z,34.10
2018-11-07T11:17:44.918Z,34.20
2018-11-07T11:18:49.047Z,34.30
2018-11-07T11:19:53.149Z,34.40
2018-11-07T11:20:57.269Z,34.40
2018-11-07T11:22:01.344Z,34.50
2018-11-07T11:23:05.486Z,34.50
2018-11-07T11:24:09.660Z,34.60
2018-11-07T11:25:13.688Z,34.70
2018-11-07T11:26:17.840Z,34.70
2018-11-07T11:27:22.065Z,34.80
2018-11-07T11:28:26.193Z,34.80
2018-11-07T11:29:30.356Z,34.90
2018-11-07T11:30:34.414Z,35.00
2018-11-07T11:31:38.558Z,35.00
2018-11-07T11:32:42.626Z,35.10
2018-11-07T11:33:46.843Z,35.20
2018-11-07T11:34:50.985Z,35.30
2018-11-07T11:35:55.170Z,35.40
2018-11-07T11:36:59.736Z,35.50
2018-11-07T11:38:04.985Z,35.60
2018-11-07T11:39:10.628Z,35.70
2018-11-07T11:40:15.232Z,35.80
2018-11-07T11:41:19.376Z,35.90
2018-11-07T11:42:23.442Z,36.00
2018-11-07T11:43:27.550Z,36.10
2018-11-07T11:44:31.782Z,36.10
2018-11-07T11:45:35.905Z,36.30
2018-11-07T11:46:40.058Z,36.40
2018-11-07T11:47:44.636Z,36.40
2018-11-07T11:48:48.727Z,36.50
2018-11-07T11:49:52.855Z,36.50
2018-11-07T11:50:56.990Z,36.60
2018-11-07T11:52:01.112Z,36.70
2018-11-07T11:53:05.371Z,36.80
2018-11-07T11:54:09.478Z,36.90
2018-11-07T11:55:13.776Z,36.90
2018-11-07T11:56:17.879Z,37.00
2018-11-07T11:57:22.526Z,37.00
2018-11-07T11:58:26.658Z,37.10
2018-11-07T11:59:30.835Z,37.20
2018-11-07T12:00:34.798Z,37.30
2018-11-07T12:01:38.920Z,37.30
2018-11-07T12:02:43.642Z,37.40
2018-11-07T12:03:47.742Z,37.50
2018-11-07T12:04:51.921Z,37.60
2018-11-07T12:05:56.120Z,37.60
2018-11-07T12:07:00.238Z,37.70
2018-11-07T12:08:04.422Z,37.80
2018-11-07T12:09:09.131Z,37.90
2018-11-07T12:10:17.977Z,37.90
2018-11-07T12:11:22.413Z,38.00
2018-11-07T12:12:26.529Z,38.10
2018-11-07T12:13:30.830Z,38.10
2018-11-07T12:14:34.872Z,38.20
2018-11-07T12:15:39.015Z,38.30
2018-11-07T12:16:43.092Z,38.30
2018-11-07T12:17:47.243Z,38.40
2018-11-07T12:18:51.355Z,38.50
2018-11-07T12:19:55.520Z,38.50
2018-11-07T12:20:59.716Z,38.60
2018-11-07T12:22:03.860Z,38.60
2018-11-07T12:23:14.661Z,38.60
2018-11-07T12:24:18.924Z,38.70
2018-11-07T12:25:23.101Z,38.70
2018-11-07T12:26:27.269Z,38.80
2018-11-07T12:27:31.622Z,38.80
2018-11-07T12:28:35.778Z,38.90
2018-11-07T12:29:39.862Z,38.90
2018-11-07T12:30:44.074Z,38.90
2018-11-07T12:31:48.168Z,39.00
2018-11-07T12:32:53.468Z,39.00
2018-11-07T12:33:57.818Z,39.10
2018-11-07T12:35:02.113Z,39.20
2018-11-07T12:36:06.367Z,39.20
2018-11-07T12:37:10.564Z,39.30
2018-11-07T12:38:14.710Z,39.30
2018-11-07T12:39:18.891Z,39.30
2018-11-07T12:40:23.044Z,39.30
2018-11-07T12:41:27.380Z,39.40
2018-11-07T12:42:31.584Z,39.40
2018-11-07T12:43:35.664Z,39.40
2018-11-07T12:44:39.806Z,39.40
2018-11-07T12:45:43.949Z,39.40
2018-11-07T12:46:48.105Z,39.50
2018-11-07T12:47:52.270Z,39.50
2018-11-07T12:48:56.476Z,39.40
2018-11-07T12:50:00.767Z,39.50
2018-11-07T12:51:04.907Z,39.50
2018-11-07T12:52:09.758Z,39.50
2018-11-07T12:53:13.903Z,39.50
2018-11-07T12:54:17.993Z,39.40
2018-11-07T12:55:22.531Z,39.40
2018-11-07T12:56:26.627Z,39.30
2018-11-07T12:57:30.734Z,39.30
2018-11-07T12:58:34.772Z,39.20
2018-11-07T12:59:38.944Z,39.10
2018-11-07T13:00:43.112Z,39.00
2018-11-07T13:01:47.395Z,39.00
2018-11-07T13:02:51.675Z,39.00
2018-11-07T13:03:55.770Z,39.00
2018-11-07T13:04:59.858Z,39.00
2018-11-07T13:06:04.069Z,39.00
2018-11-07T13:07:08.135Z,39.00
2018-11-07T13:08:12.392Z,39.00
2018-11-07T13:09:16.550Z,39.00
2018-11-07T13:10:21.355Z,39.10
2018-11-07T13:11:25.462Z,39.10
2018-11-07T13:12:29.511Z,39.10
2018-11-07T13:13:33.716Z,39.20
2018-11-07T13:14:37.811Z,39.10
2018-11-07T13:15:42.054Z,39.10
2018-11-07T13:16:46.318Z,39.00
2018-11-07T13:17:51.149Z,39.00
2018-11-07T13:18:55.268Z,38.80
2018-11-07T13:19:59.392Z,38.70
2018-11-07T13:21:03.596Z,38.60
2018-11-07T13:22:07.741Z,38.50
2018-11-07T13:23:12.052Z,38.40
2018-11-07T13:24:16.464Z,38.40
2018-11-07T13:25:21.073Z,38.30
2018-11-07T13:26:25.326Z,38.20
2018-11-07T13:27:29.504Z,38.10
2018-11-07T13:28:33.866Z,38.10
2018-11-07T13:29:41.001Z,38.10
2018-11-07T13:30:47.598Z,38.00
2018-11-07T13:31:53.836Z,37.90
2018-11-07T13:32:58.880Z,37.80
2018-11-07T13:34:03.670Z,37.80
2018-11-07T13:35:08.998Z,37.70
2018-11-07T13:36:13.101Z,37.70
2018-11-07T13:37:17.563Z,37.60
2018-11-07T13:38:21.646Z,37.50
2018-11-07T13:39:25.647Z,37.40
2018-11-07T13:40:29.727Z,37.40
2018-11-07T13:41:33.835Z,37.30
2018-11-07T13:42:37.929Z,37.30
2018-11-07T13:43:42.069Z,37.20
2018-11-07T13:44:46.264Z,37.20
2018-11-07T13:45:50.515Z,37.20
2018-11-07T13:46:54.688Z,37.20
2018-11-07T13:47:58.943Z,37.20
2018-11-07T13:49:03.065Z,37.20
2018-11-07T13:50:07.463Z,37.20